Mayport Ns (Adm David L. Mcdonald Field) Airport Mayport US
ICAO: KNRB
IATA: NRB
Category: Medium
Scheduled Services: No

Elevation: 15 ft
TransAlt. 18000 ft.

Airport Communications:
JACKSONVILLE APP/DEP:124.9
ATIS:26.86
GND:126.5
PTD:30.85
TWR:118.75

KNRB Zoom In..

If you have problems with the map follow the link
https://www.worldairports.se/pages/airport.php?
ICAO=KNRB

Runways:

(A) RW 05 length 8001 ft width 200 ft
---- / hdg 46

(B) RW 23 length 8001 ft width 200 ft
---- / hdg 226

Location; KNRB
Day. 18 / Time. 10.52 Zulu
* Altimeter: 30.37
* Temperature: 17° c. 62.6°f.
* Wind from: 130° Speed 08 kn.
Dewpoint: 13° c.
Visibility: 10 Statute Miles.
Clouds: Broken 4300 ft.

KNRB 181052Z AUTO 13008KT 10SM BKN043 17/13 A3037 RMK AO2 SLP284 T01720133


Wind From 130°
Speed 08 kn.

 
 
jpsmedia worldairports.se 2020   terms of use